Time;durP1;ratioP1;P1;durP2;ratioP2;P2;SDS_P1;SDS_P2;PMS_P1;PMS_P2;Temp;Humidity;BMP_temperature;BMP_pressure;BME280_temperature;BME280_humidity;BME280_pressure;Samples;Min_cycle;Max_cycle;Signal;HPM_P1;HPM_P2
2022/05/14 00:01:33;;;;;;;12.65;4.75;;;10.90;99.90;;;;;;5025506;28;20022;-69
2022/05/14 00:03:59;;;;;;;7.80;3.45;;;11.50;99.90;;;;;;5030392;28;20117;-71
2022/05/14 00:06:27;;;;;;;6.95;3.85;;;11.50;99.90;;;;;;5029000;28;20471;-72
2022/05/14 00:08:53;;;;;;;9.93;3.70;;;;;;;;;;5030388;28;20026;-71
2022/05/14 00:14:07;;;;;;;9.57;3.78;;;11.30;99.90;;;;;;5029620;28;20064;-71
2022/05/14 00:16:36;;;;;;;11.27;4.32;;;11.60;99.90;;;;;;5029735;28;20069;-71
2022/05/14 00:19:03;;;;;;;13.82;4.30;;;11.50;99.90;;;;;;5030335;28;20029;-71
2022/05/14 00:21:29;;;;;;;12.82;4.53;;;11.50;99.90;;;;;;5030803;28;20167;-71
2022/05/14 00:23:55;;;;;;;9.98;3.53;;;11.40;99.90;;;;;;5011188;28;20129;-71
2022/05/14 00:26:21;;;;;;;8.60;3.40;;;11.40;99.90;;;;;;5024353;28;20462;-69
2022/05/14 00:28:47;;;;;;;10.77;4.80;;;11.50;99.90;;;;;;5030460;28;20103;-69
2022/05/14 00:31:13;;;;;;;9.27;3.08;;;11.50;99.90;;;;;;5030354;28;20029;-70
2022/05/14 00:33:39;;;;;;;7.20;2.75;;;;;;;;;;5029132;28;20028;-69
2022/05/14 00:36:05;;;;;;;8.02;3.42;;;11.80;99.90;;;;;;5030535;28;20030;-70
2022/05/14 00:38:31;;;;;;;9.43;3.53;;;11.50;99.90;;;;;;5030755;28;20478;-70
2022/05/14 00:41:00;;;;;;;4.35;2.28;;;11.50;99.90;;;;;;5029826;28;20027;-70
2022/05/14 00:43:26;;;;;;;7.60;2.42;;;11.50;99.90;;;;;;5030425;28;20025;-70
2022/05/14 00:46:13;;;;;;;6.60;2.60;;;11.50;99.90;;;;;;5029957;28;20026;-70
2022/05/14 00:48:41;;;;;;;5.15;2.38;;;11.50;99.90;;;;;;5028731;28;20394;-70
2022/05/14 00:51:11;;;;;;;3.42;2.15;;;11.60;99.90;;;;;;5029723;28;20499;-70
2022/05/14 00:53:40;;;;;;;6.47;2.25;;;11.50;99.90;;;;;;5012234;28;20026;-70
2022/05/14 00:56:09;;;;;;;6.13;2.65;;;11.50;99.90;;;;;;5009754;28;20049;-70
2022/05/14 00:58:58;;;;;;;6.85;2.10;;;11.40;99.90;;;;;;5010393;28;20017;-70
2022/05/14 01:01:23;;;;;;;6.65;2.60;;;11.50;99.90;;;;;;5009850;28;20270;-70
2022/05/14 01:03:49;;;;;;;8.50;3.63;;;11.50;99.90;;;;;;5009774;28;20540;-70
2022/05/14 01:06:19;;;;;;;3.55;2.00;;;11.40;99.90;;;;;;5008888;28;20391;-70
2022/05/14 01:08:47;;;;;;;7.90;2.25;;;11.40;99.90;;;;;;5009991;28;20026;-70
2022/05/14 01:11:14;;;;;;;6.95;2.28;;;11.40;99.90;;;;;;5009602;28;20034;-70
2022/05/14 01:13:40;;;;;;;7.18;2.95;;;;;;;;;;5014895;28;20134;-70
2022/05/14 01:16:06;;;;;;;6.40;2.55;;;;;;;;;;5029118;28;20120;-70
2022/05/14 01:18:34;;;;;;;5.75;2.78;;;10.90;99.90;;;;;;5029655;28;20030;-70
2022/05/14 01:21:04;;;;;;;7.68;2.83;;;11.20;99.90;;;;;;5029246;28;20029;-70
2022/05/14 01:26:29;;;;;;;8.27;2.88;;;11.40;99.90;;;;;;5029647;28;20083;-71
2022/05/14 01:29:05;;;;;;;5.15;3.03;;;11.40;99.90;;;;;;5029343;28;20037;-71
2022/05/14 01:31:31;;;;;;;6.88;3.20;;;11.50;99.90;;;;;;5029394;28;20076;-70
2022/05/14 01:34:01;;;;;;;9.00;2.20;;;11.40;99.90;;;;;;5029219;28;20033;-71
2022/05/14 01:36:27;;;;;;;8.60;2.70;;;;;;;;;;5029599;28;20060;-70
2022/05/14 01:38:55;;;;;;;8.95;3.25;;;11.70;99.90;;;;;;5029037;28;20323;-70
2022/05/14 01:41:22;;;;;;;7.95;2.97;;;11.60;99.90;;;;;;5029134;28;20029;-69
2022/05/14 01:43:48;;;;;;;11.45;3.97;;;11.60;99.90;;;;;;5022412;28;20068;-70
2022/05/14 01:46:14;;;;;;;12.02;3.28;;;11.60;99.90;;;;;;5010346;28;20088;-72
2022/05/14 01:48:39;;;;;;;9.13;3.70;;;;;;;;;;5009548;28;20026;-70
2022/05/14 01:51:06;;;;;;;12.55;4.35;;;11.60;99.90;;;;;;5009045;28;20115;-70
2022/05/14 01:53:32;;;;;;;7.40;3.53;;;11.60;99.90;;;;;;5009241;28;20064;-71
2022/05/14 01:55:58;;;;;;;12.63;3.42;;;11.50;99.90;;;;;;5009179;28;20036;-70
2022/05/14 01:58:39;;;;;;;6.88;4.03;;;11.40;99.90;;;;;;5009380;28;20030;-70
2022/05/14 02:01:19;;;;;;;7.28;3.63;;;11.50;99.90;;;;;;5009050;28;20041;-70
2022/05/14 02:03:48;;;;;;;7.63;2.92;;;11.30;99.90;;;;;;5008885;28;20030;-70
2022/05/14 02:06:14;;;;;;;5.20;3.28;;;11.30;99.90;;;;;;5009032;28;20034;-70
2022/05/14 02:08:40;;;;;;;8.80;3.58;;;11.20;99.90;;;;;;5008844;28;20048;-70
2022/05/14 02:11:08;;;;;;;9.70;3.35;;;11.10;99.90;;;;;;5008872;28;20313;-70
2022/05/14 02:13:34;;;;;;;8.20;3.65;;;11.00;99.90;;;;;;5013262;28;20047;-70
2022/05/14 02:16:01;;;;;;;8.25;3.00;;;;;;;;;;5028161;28;20029;-70
2022/05/14 02:18:27;;;;;;;6.07;3.35;;;11.00;99.90;;;;;;5027190;28;20049;-70
2022/05/14 02:20:52;;;;;;;4.43;3.10;;;10.90;99.90;;;;;;5028533;28;20036;-70
2022/05/14 02:23:18;;;;;;;6.75;3.22;;;10.90;99.90;;;;;;5028128;28;20017;-70
2022/05/14 02:25:44;;;;;;;10.82;2.97;;;10.90;99.90;;;;;;5028511;28;20040;-70
2022/05/14 02:28:10;;;;;;;10.57;3.38;;;10.70;99.90;;;;;;5027051;28;20035;-70
2022/05/14 02:30:36;;;;;;;8.20;3.53;;;10.80;99.90;;;;;;5027219;28;20075;-70
2022/05/14 02:33:01;;;;;;;5.68;2.67;;;10.60;99.90;;;;;;5028189;28;20029;-70
2022/05/14 02:35:27;;;;;;;5.35;2.88;;;;;;;;;;5028692;28;20326;-70
2022/05/14 02:37:53;;;;;;;9.10;3.28;;;10.60;99.90;;;;;;5027858;28;20029;-70
2022/05/14 02:40:18;;;;;;;7.38;3.20;;;10.60;99.90;;;;;;5028488;28;20357;-70
2022/05/14 02:42:44;;;;;;;7.35;3.00;;;10.60;99.90;;;;;;5014488;28;20097;-70
2022/05/14 02:45:10;;;;;;;6.25;2.70;;;10.50;99.90;;;;;;5008612;28;20068;-69
2022/05/14 02:47:36;;;;;;;7.07;2.85;;;;;;;;;;5007477;28;20030;-70
2022/05/14 02:50:03;;;;;;;9.98;3.25;;;10.40;99.90;;;;;;5008190;28;20037;-70
2022/05/14 02:52:28;;;;;;;8.88;3.70;;;10.40;99.90;;;;;;5008358;28;20038;-70
2022/05/14 02:54:54;;;;;;;6.70;3.63;;;10.40;99.90;;;;;;5008489;28;20080;-70
2022/05/14 02:57:19;;;;;;;6.00;2.55;;;10.40;99.90;;;;;;5008491;28;20038;-70
2022/05/14 02:59:45;;;;;;;7.45;3.65;;;10.30;99.90;;;;;;5008386;28;20502;-70
2022/05/14 03:02:11;;;;;;;7.22;2.47;;;;;;;;;;5008394;28;20033;-70
2022/05/14 03:04:40;;;;;;;9.00;3.28;;;10.20;99.90;;;;;;5008846;28;20018;-69
2022/05/14 03:07:07;;;;;;;6.65;2.85;;;10.20;99.90;;;;;;5007719;28;20053;-69
2022/05/14 03:09:34;;;;;;;5.85;2.50;;;10.00;99.90;;;;;;5008591;28;20018;-69
2022/05/14 03:12:00;;;;;;;6.90;3.70;;;10.20;99.90;;;;;;5015171;28;20171;-69
2022/05/14 03:14:25;;;;;;;8.45;2.97;;;10.10;99.90;;;;;;5028097;28;20042;-69
2022/05/14 03:16:52;;;;;;;18.60;4.18;;;10.20;99.90;;;;;;5016554;28;20030;-69
2022/05/14 03:19:18;;;;;;;5.95;2.80;;;10.10;99.90;;;;;;5007236;28;20018;-70
2022/05/14 03:21:43;;;;;;;10.25;3.22;;;10.10;99.90;;;;;;5005560;28;20525;-69
2022/05/14 03:24:10;;;;;;;6.43;2.90;;;10.10;99.90;;;;;;5008114;28;20084;-69
2022/05/14 03:26:40;;;;;;;6.70;3.13;;;10.20;99.90;;;;;;5008094;28;20018;-69
2022/05/14 03:29:05;;;;;;;6.65;3.08;;;10.20;99.90;;;;;;5007767;28;20490;-69
2022/05/14 03:31:31;;;;;;;5.18;2.53;;;10.00;99.90;;;;;;5011955;28;20121;-69
2022/05/14 03:33:58;;;;;;;7.30;3.25;;;10.20;99.90;;;;;;5030936;28;20047;-69
2022/05/14 03:36:23;;;;;;;6.25;2.88;;;9.80;99.90;;;;;;5030130;28;20033;-69
2022/05/14 03:38:49;;;;;;;6.93;2.78;;;;;;;;;;5031405;28;20032;-70
2022/05/14 03:41:16;;;;;;;8.32;3.60;;;10.00;99.90;;;;;;5031592;28;20347;-69
2022/05/14 03:43:43;;;;;;;5.45;3.25;;;10.00;99.90;;;;;;5029889;28;20036;-70
2022/05/14 03:46:10;;;;;;;8.98;3.53;;;10.00;99.90;;;;;;5031169;28;20052;-69
2022/05/14 03:48:36;;;;;;;7.23;2.90;;;10.00;99.90;;;;;;5031171;28;20116;-69
2022/05/14 03:51:02;;;;;;;5.22;3.20;;;9.90;99.90;;;;;;5030929;28;20512;-69
2022/05/14 03:53:29;;;;;;;6.40;3.40;;;9.90;99.90;;;;;;5031425;28;20036;-69
2022/05/14 03:55:54;;;;;;;7.00;3.60;;;9.80;99.90;;;;;;5029752;28;20065;-69
2022/05/14 03:58:20;;;;;;;9.68;3.70;;;9.90;99.90;;;;;;5030850;28;20454;-70
2022/05/14 04:00:46;;;;;;;8.05;3.25;;;;;;;;;;5029739;28;20401;-70
2022/05/14 04:03:12;;;;;;;11.07;3.75;;;9.80;99.90;;;;;;5016258;28;20487;-70
2022/05/14 04:05:38;;;;;;;7.13;3.88;;;9.80;99.90;;;;;;5011419;28;20036;-69
2022/05/14 04:08:03;;;;;;;7.03;4.20;;;9.80;99.90;;;;;;5011031;28;20506;-70
2022/05/14 04:10:30;;;;;;;7.25;3.63;;;9.90;99.90;;;;;;5011347;28;20034;-70
2022/05/14 04:12:55;;;;;;;7.40;3.83;;;9.80;99.90;;;;;;5010745;28;20382;-69
2022/05/14 04:15:23;;;;;;;10.73;3.70;;;9.70;99.90;;;;;;5011015;28;20045;-70
2022/05/14 04:17:50;;;;;;;9.98;4.07;;;9.80;99.90;;;;;;5010627;28;20184;-70
2022/05/14 04:20:15;;;;;;;9.35;3.95;;;9.80;99.90;;;;;;5010742;28;20018;-70
2022/05/14 04:22:43;;;;;;;9.45;4.07;;;;;;;;;;5010742;28;20040;-70
2022/05/14 04:25:09;;;;;;;10.68;4.05;;;9.80;99.90;;;;;;5010502;28;20022;-69
2022/05/14 04:27:34;;;;;;;10.45;5.35;;;9.70;99.90;;;;;;5011377;28;20029;-70
2022/05/14 04:30:00;;;;;;;7.90;3.67;;;10.10;99.90;;;;;;5010439;28;20097;-71
2022/05/14 04:32:25;;;;;;;9.23;4.22;;;9.80;99.90;;;;;;5019413;28;20026;-70
2022/05/14 04:34:51;;;;;;;6.13;4.05;;;9.90;99.90;;;;;;5030457;28;20057;-70
2022/05/14 04:37:17;;;;;;;7.75;3.80;;;;;;;;;;5030286;28;20029;-70
2022/05/14 04:39:43;;;;;;;8.30;3.58;;;;;;;;;;5030572;28;20022;-70
2022/05/14 04:42:10;;;;;;;6.00;3.22;;;9.90;99.90;;;;;;5030139;28;20384;-70
2022/05/14 04:44:37;;;;;;;7.97;4.10;;;9.80;99.90;;;;;;5030479;28;20035;-70
2022/05/14 04:47:04;;;;;;;8.75;4.20;;;10.00;99.90;;;;;;5028110;28;20084;-70
2022/05/14 04:49:30;;;;;;;7.28;4.43;;;10.00;99.90;;;;;;5030290;28;20034;-70
2022/05/14 04:51:56;;;;;;;8.43;3.60;;;10.10;99.90;;;;;;5030042;28;20478;-70
2022/05/14 04:54:22;;;;;;;12.15;4.18;;;10.10;99.90;;;;;;5029839;28;20026;-70
2022/05/14 04:56:47;;;;;;;6.85;3.90;;;10.10;99.90;;;;;;5030087;28;20048;-70
2022/05/14 04:59:14;;;;;;;8.43;4.30;;;;;;;;;;5029830;28;20043;-70
2022/05/14 05:03:16;;;;;;;9.45;4.50;;;10.30;99.90;;;;;;5026854;28;20536;-70
2022/05/14 05:04:25;;;;;;;7.70;4.13;;;10.20;99.90;;;;;;5010122;28;20026;-69
2022/05/14 05:06:51;;;;;;;12.63;4.95;;;;;;;;;;5009985;28;20033;-69
2022/05/14 05:09:17;;;;;;;10.23;5.15;;;10.40;99.90;;;;;;5010184;28;20034;-69
2022/05/14 05:11:42;;;;;;;9.82;4.38;;;10.40;99.90;;;;;;5009810;28;20049;-69
2022/05/14 05:14:08;;;;;;;11.23;5.28;;;10.50;99.90;;;;;;5009873;28;20046;-69
2022/05/14 05:16:35;;;;;;;10.23;5.20;;;10.60;99.90;;;;;;5009709;28;20038;-70
2022/05/14 05:19:01;;;;;;;9.95;5.13;;;10.60;99.90;;;;;;5009593;28;20022;-70
2022/05/14 05:21:27;;;;;;;10.90;4.95;;;;;;;;;;5010152;28;20379;-70
2022/05/14 05:23:52;;;;;;;6.57;4.50;;;10.60;99.90;;;;;;5009891;28;20022;-70
2022/05/14 05:26:18;;;;;;;6.60;4.78;;;10.60;99.90;;;;;;5009816;28;20450;-70
2022/05/14 05:28:44;;;;;;;14.77;4.95;;;;;;;;;;5009876;28;20419;-70
2022/05/14 05:31:09;;;;;;;9.32;4.57;;;10.40;99.90;;;;;;5009854;28;20049;-70
2022/05/14 05:33:35;;;;;;;11.02;5.93;;;;;;;;;;5029572;28;20029;-71
2022/05/14 05:36:01;;;;;;;7.50;4.80;;;10.70;99.90;;;;;;5029041;28;20413;-71
2022/05/14 05:38:27;;;;;;;9.13;5.15;;;;;;;;;;5029390;28;20053;-71
2022/05/14 05:40:53;;;;;;;10.20;5.10;;;;;;;;;;5029291;28;20036;-72
2022/05/14 05:43:20;;;;;;;7.75;4.68;;;;;;;;;;5029193;28;20132;-72
2022/05/14 05:45:47;;;;;;;7.07;5.80;;;11.10;99.90;;;;;;5028578;28;20033;-72
2022/05/14 05:48:13;;;;;;;12.52;6.28;;;;;;;;;;5029159;28;20061;-71
2022/05/14 05:50:40;;;;;;;14.77;6.95;;;;;;;;;;5029115;28;20025;-71
2022/05/14 05:53:07;;;;;;;12.60;6.97;;;11.50;99.90;;;;;;5028687;28;20087;-71
2022/05/14 05:58:19;;;;;;;7.93;5.10;;;11.80;99.90;;;;;;5029106;28;20040;-69
2022/05/14 06:00:45;;;;;;;14.13;6.22;;;11.50;99.90;;;;;;5028292;28;20026;-70
2022/05/14 06:03:11;;;;;;;11.35;7.25;;;11.70;99.90;;;;;;5021869;28;20445;-70
2022/05/14 06:05:41;;;;;;;14.90;8.30;;;11.80;99.90;;;;;;5028199;28;20053;-71
2022/05/14 06:08:12;;;;;;;13.95;7.03;;;11.80;99.90;;;;;;5027188;28;20057;-70
2022/05/14 06:10:38;;;;;;;13.60;7.40;;;;;;;;;;5029025;28;20025;-71
2022/05/14 06:13:03;;;;;;;10.65;6.05;;;12.00;99.90;;;;;;5028229;28;20052;-70
2022/05/14 06:15:29;;;;;;;10.55;7.00;;;12.10;99.90;;;;;;5028385;28;20041;-70
2022/05/14 06:18:01;;;;;;;19.33;8.50;;;12.10;99.90;;;;;;5028348;28;20078;-70
2022/05/14 06:20:27;;;;;;;12.82;9.05;;;12.40;99.90;;;;;;5028396;28;20542;-71
2022/05/14 06:22:53;;;;;;;14.98;9.20;;;12.50;99.90;;;;;;5028652;28;20156;-72
2022/05/14 06:25:18;;;;;;;18.45;9.90;;;12.60;99.90;;;;;;5028517;28;20037;-72
2022/05/14 06:27:44;;;;;;;19.10;8.77;;;12.60;99.90;;;;;;5027120;28;20041;-70
2022/05/14 06:30:10;;;;;;;16.00;9.30;;;12.60;99.90;;;;;;5028170;28;20040;-70
2022/05/14 06:32:36;;;;;;;20.90;10.88;;;12.80;99.90;;;;;;5027939;28;20048;-70
2022/05/14 06:35:03;;;;;;;15.95;9.70;;;12.80;99.90;;;;;;5028078;28;20537;-71
2022/05/14 06:37:29;;;;;;;13.75;7.93;;;;;;;;;;5028518;28;20109;-71
2022/05/14 06:39:58;;;;;;;14.75;10.02;;;12.80;99.90;;;;;;5028641;28;20469;-71
2022/05/14 06:42:23;;;;;;;15.07;9.85;;;13.10;99.90;;;;;;5028895;28;20037;-72
2022/05/14 06:44:49;;;;;;;14.70;10.20;;;;;;;;;;5027975;28;20105;-72
2022/05/14 06:47:15;;;;;;;18.15;10.57;;;13.10;99.90;;;;;;5028592;28;20490;-71
2022/05/14 06:49:41;;;;;;;19.92;10.50;;;13.70;99.90;;;;;;5027450;28;20103;-71
2022/05/14 06:52:09;;;;;;;14.75;10.07;;;13.40;99.90;;;;;;5028315;28;20033;-70
2022/05/14 06:54:38;;;;;;;18.67;9.45;;;13.30;99.90;;;;;;5027444;28;20120;-70
2022/05/14 06:57:04;;;;;;;23.25;10.65;;;13.60;99.90;;;;;;5027549;28;20029;-71
2022/05/14 06:59:32;;;;;;;21.60;10.63;;;13.00;99.90;;;;;;5027092;28;20034;-71
2022/05/14 07:01:58;;;;;;;17.52;8.77;;;13.60;99.90;;;;;;5024739;28;20026;-71
2022/05/14 07:07:07;;;;;;;;;;;13.50;99.90;;;;;;5032524;28;20025;-70
2022/05/14 07:09:34;;;;;;;17.80;9.82;;;13.90;99.90;;;;;;5032370;28;20270;-70
2022/05/14 07:12:08;;;;;;;23.80;10.63;;;13.40;99.90;;;;;;5031116;28;20320;-69
2022/05/14 07:14:33;;;;;;;;;;;13.90;99.90;;;;;;5029089;28;20053;-70
2022/05/14 07:16:59;;;;;;;23.13;9.27;;;14.20;99.90;;;;;;5031852;28;19912;-69
2022/05/14 07:19:25;;;;;;;16.90;9.32;;;14.20;99.90;;;;;;5032809;28;20029;-69
2022/05/14 07:21:52;;;;;;;14.35;9.07;;;14.20;99.90;;;;;;5032713;28;20123;-69
2022/05/14 07:24:22;;;;;;;22.00;12.32;;;14.30;99.90;;;;;;5030597;28;20516;-70
2022/05/14 07:26:50;;;;;;;26.85;11.88;;;14.50;99.90;;;;;;5029460;28;20065;-70
2022/05/14 07:29:20;;;;;;;19.65;10.13;;;14.60;99.90;;;;;;5031380;28;20061;-69
2022/05/14 07:31:46;;;;;;;22.90;10.45;;;14.80;99.90;;;;;;5030887;28;20375;-70
2022/05/14 07:34:12;;;;;;;21.55;12.07;;;14.90;99.90;;;;;;5031552;28;20435;-70
2022/05/14 07:37:01;;;;;;;18.50;11.98;;;14.90;99.90;;;;;;5031924;28;20491;-69
2022/05/14 07:39:31;;;;;;;17.55;9.02;;;15.10;99.90;;;;;;5031354;28;20455;-69
2022/05/14 07:42:00;;;;;;;27.73;9.82;;;15.20;99.90;;;;;;5031302;28;20037;-69
2022/05/14 07:44:30;;;;;;;20.33;11.55;;;15.20;99.90;;;;;;5031706;28;20466;-69
2022/05/14 07:46:56;;;;;;;16.55;9.25;;;15.10;99.90;;;;;;5031326;28;20386;-69
2022/05/14 07:49:24;;;;;;;20.40;10.70;;;15.20;99.90;;;;;;5031435;28;20029;-68
2022/05/14 07:51:52;;;;;;;13.70;10.00;;;15.30;99.90;;;;;;5031298;28;20048;-69
2022/05/14 07:54:18;;;;;;;16.27;9.45;;;15.50;99.90;;;;;;5030777;28;20171;-68
2022/05/14 07:56:43;;;;;;;19.05;9.00;;;15.50;99.90;;;;;;5030948;28;20082;-69
2022/05/14 07:59:09;;;;;;;19.23;9.13;;;15.50;99.90;;;;;;5030717;28;20065;-69
2022/05/14 08:01:35;;;;;;;17.70;10.27;;;15.60;99.90;;;;;;5026659;28;20044;-69
2022/05/14 08:04:00;;;;;;;15.60;10.02;;;15.70;99.90;;;;;;5019424;28;20372;-69
2022/05/14 08:06:26;;;;;;;15.32;9.60;;;16.20;99.90;;;;;;5014136;28;20022;-69
2022/05/14 08:08:53;;;;;;;17.52;9.75;;;16.20;99.90;;;;;;5023540;28;20044;-69
2022/05/14 08:11:19;;;;;;;17.70;9.63;;;16.10;99.90;;;;;;5027321;28;20044;-69
2022/05/14 08:13:45;;;;;;;18.67;10.02;;;15.90;99.90;;;;;;5030739;28;20382;-69
2022/05/14 08:16:11;;;;;;;20.65;9.38;;;16.10;99.90;;;;;;5030069;28;20028;-69
2022/05/14 08:18:37;;;;;;;12.32;8.40;;;16.20;99.90;;;;;;5029227;28;20022;-69
2022/05/14 08:26:39;;;;;;;12.90;7.85;;;16.60;99.90;;;;;;5011285;28;20053;-70
2022/05/14 08:29:05;;;;;;;19.48;8.52;;;16.50;99.80;;;;;;5022031;28;20026;-69
2022/05/14 08:31:30;;;;;;;22.52;8.43;;;16.50;99.80;;;;;;5029199;28;20049;-70
2022/05/14 08:33:56;;;;;;;14.68;8.85;;;16.60;99.60;;;;;;5030185;28;20100;-69
2022/05/14 08:36:21;;;;;;;20.35;9.80;;;17.10;99.90;;;;;;5029731;28;20116;-71
2022/05/14 08:38:46;;;;;;;14.35;8.63;;;16.80;99.90;;;;;;5029800;28;20025;-70
2022/05/14 08:41:15;;;;;;;12.45;6.60;;;16.80;99.90;;;;;;5024501;28;20033;-70
2022/05/14 08:43:50;;;;;;;16.98;7.13;;;17.30;99.90;;;;;;5010651;28;20030;-70
2022/05/14 08:46:20;;;;;;;16.98;8.80;;;18.70;99.50;;;;;;5021209;28;20432;-70
2022/05/14 08:48:51;;;;;;;17.17;8.43;;;17.20;99.90;;;;;;5025455;28;20029;-70
2022/05/14 08:51:22;;;;;;;18.48;7.13;;;17.00;99.90;;;;;;5042871;28;20118;-71
2022/05/14 08:53:50;;;;;;;12.65;5.78;;;17.10;98.30;;;;;;5008710;28;20018;-70
2022/05/14 08:56:21;;;;;;;15.13;5.90;;;17.10;97.80;;;;;;5010075;28;20052;-70
2022/05/14 08:59:17;;;;;;;11.93;4.82;;;17.40;99.90;;;;;;5010398;28;20446;-70
2022/05/14 09:01:44;;;;;;;14.68;5.35;;;17.50;99.90;;;;;;5010446;28;20030;-70
2022/05/14 09:04:13;;;;;;;13.65;4.72;;;17.30;97.20;;;;;;5010055;28;20037;-70
2022/05/14 09:06:40;;;;;;;12.45;5.43;;;17.50;97.00;;;;;;5010180;28;20032;-70
2022/05/14 09:09:06;;;;;;;15.90;5.47;;;17.60;96.50;;;;;;5009274;28;20030;-70
2022/05/14 09:11:43;;;;;;;14.20;4.93;;;17.50;96.30;;;;;;5015781;28;20466;-70
2022/05/14 09:14:26;;;;;;;11.65;5.18;;;17.70;96.50;;;;;;5029295;28;20053;-70
2022/05/14 09:17:11;;;;;;;16.10;5.40;;;17.80;95.70;;;;;;5029559;28;20431;-70
2022/05/14 09:19:41;;;;;;;13.80;5.45;;;17.90;95.60;;;;;;5029866;28;20418;-70
2022/05/14 09:22:31;;;;;;;12.02;5.43;;;18.00;96.00;;;;;;5027231;28;20397;-71
2022/05/14 09:25:03;;;;;;;12.23;6.05;;;18.10;95.10;;;;;;5029857;28;20060;-69
2022/05/14 09:27:43;;;;;;;10.70;4.72;;;17.40;95.40;;;;;;5028635;28;20033;-70
2022/05/14 09:30:13;;;;;;;18.60;6.20;;;18.40;94.50;;;;;;5029297;28;20059;-71
2022/05/14 09:32:44;;;;;;;14.13;5.60;;;18.40;94.60;;;;;;5028821;28;20041;-71
2022/05/14 09:35:15;;;;;;;12.85;4.80;;;18.50;94.50;;;;;;5027774;28;20091;-69
2022/05/14 09:37:42;;;;;;;10.70;5.78;;;18.60;93.40;;;;;;5027471;28;20025;-69
2022/05/14 09:40:12;;;;;;;15.73;5.95;;;18.60;93.90;;;;;;5029174;28;20029;-69
2022/05/14 09:42:45;;;;;;;13.73;4.82;;;18.70;93.60;;;;;;5026036;28;20099;-70
2022/05/14 09:45:22;;;;;;;15.43;5.72;;;18.70;93.70;;;;;;5026724;28;20037;-71
2022/05/14 09:47:48;;;;;;;11.63;4.68;;;18.80;92.80;;;;;;5028929;28;20079;-71
2022/05/14 09:50:34;;;;;;;11.68;4.22;;;18.90;93.20;;;;;;5028518;28;20037;-71
2022/05/14 09:53:04;;;;;;;6.07;3.17;;;20.10;93.00;;;;;;5026993;28;20088;-69
2022/05/14 09:55:57;;;;;;;10.65;3.60;;;19.10;92.60;;;;;;5029100;28;20029;-69
2022/05/14 09:58:28;;;;;;;14.47;5.23;;;19.20;92.00;;;;;;5028422;28;20312;-71
2022/05/14 10:01:07;;;;;;;12.52;3.92;;;19.20;92.20;;;;;;5028108;28;20344;-70
2022/05/14 10:03:42;;;;;;;12.10;4.20;;;19.00;92.50;;;;;;5028686;28;20032;-71
2022/05/14 10:06:33;;;;;;;11.57;4.43;;;19.40;92.30;;;;;;5028260;28;20021;-71
2022/05/14 10:09:08;;;;;;;10.88;4.65;;;19.80;91.20;;;;;;5028549;28;20029;-71
2022/05/14 10:11:36;;;;;;;11.40;5.43;;;19.30;92.00;;;;;;5029004;28;20033;-70
2022/05/14 10:14:16;;;;;;;14.00;6.05;;;19.50;90.90;;;;;;5028282;28;20069;-71
2022/05/14 10:17:05;;;;;;;8.25;4.63;;;19.70;91.10;;;;;;5028849;28;20049;-71
2022/05/14 10:20:08;;;;;;;11.20;4.95;;;19.70;90.80;;;;;;5027805;28;20029;-71
2022/05/14 10:28:49;;;;;;;15.02;4.93;;;20.20;90.10;;;;;;5006758;28;20157;-71
2022/05/14 10:31:27;;;;;;;11.80;5.05;;;20.00;89.80;;;;;;5006342;28;20402;-71
2022/05/14 10:33:57;;;;;;;8.25;3.92;;;20.10;89.60;;;;;;5006327;28;20025;-71
2022/05/14 10:36:45;;;;;;;10.55;4.40;;;19.90;89.80;;;;;;5005854;28;20206;-71
2022/05/14 10:39:23;;;;;;;15.65;5.53;;;20.00;89.70;;;;;;5007968;28;20037;-71
2022/05/14 10:41:57;;;;;;;9.55;3.97;;;20.00;88.60;;;;;;5010302;28;20356;-71
2022/05/14 10:44:35;;;;;;;12.40;3.80;;;20.10;88.30;;;;;;5010162;28;20038;-70
2022/05/14 10:47:04;;;;;;;12.90;5.60;;;20.20;88.20;;;;;;5010010;28;20026;-70
2022/05/14 10:49:44;;;;;;;12.38;3.60;;;20.60;87.50;;;;;;4996445;28;20066;-71
2022/05/14 10:52:15;;;;;;;17.90;4.47;;;20.70;85.20;;;;;;4990659;28;20039;-70
2022/05/14 10:54:43;;;;;;;10.52;2.88;;;20.70;86.70;;;;;;4990843;28;20089;-71
2022/05/14 10:57:15;;;;;;;10.60;3.67;;;20.90;86.30;;;;;;5007741;28;20243;-71
2022/05/14 11:00:11;;;;;;;5.07;2.75;;;21.00;85.90;;;;;;5012625;28;20064;-71
2022/05/14 11:02:51;;;;;;;8.88;3.30;;;21.20;85.50;;;;;;5011227;28;20150;-71
2022/05/14 11:05:34;;;;;;;7.88;3.58;;;21.00;84.60;;;;;;5011998;28;20022;-71
2022/05/14 11:08:10;;;;;;;10.70;3.50;;;21.10;82.90;;;;;;5012236;28;20030;-71
2022/05/14 11:10:36;;;;;;;9.82;3.35;;;21.20;84.30;;;;;;5012405;28;20116;-71
2022/05/14 11:13:24;;;;;;;14.63;5.50;;;21.10;83.10;;;;;;5011988;28;20488;-70
2022/05/14 11:16:03;;;;;;;14.80;5.03;;;22.50;84.00;;;;;;5011918;28;20038;-71
2022/05/14 11:18:29;;;;;;;8.20;3.55;;;21.00;82.80;;;;;;5019013;28;20474;-71
2022/05/14 11:20:58;;;;;;;8.05;3.97;;;21.00;82.30;;;;;;5031749;28;20037;-70
2022/05/14 11:23:25;;;;;;;17.05;4.35;;;21.20;82.70;;;;;;5030728;28;20029;-71
2022/05/14 11:26:10;;;;;;;8.45;3.20;;;21.10;81.70;;;;;;5031946;28;20109;-70
2022/05/14 11:28:36;;;;;;;11.02;3.38;;;21.30;80.70;;;;;;5031904;28;20057;-71
2022/05/14 11:31:24;;;;;;;11.43;3.25;;;21.40;81.60;;;;;;5031390;28;20056;-70
2022/05/14 11:33:53;;;;;;;9.10;3.08;;;21.60;81.60;;;;;;5029783;28;20030;-71
2022/05/14 11:36:46;;;;;;;11.35;4.13;;;20.60;80.60;;;;;;5031741;28;20536;-71
2022/05/14 11:39:23;;;;;;;8.60;3.75;;;21.70;79.90;;;;;;5031405;28;20033;-71
2022/05/14 11:41:52;;;;;;;13.60;4.13;;;21.70;81.00;;;;;;5031365;28;20120;-71
2022/05/14 11:44:35;;;;;;;8.68;2.97;;;21.70;79.80;;;;;;5029905;28;20021;-71
2022/05/14 11:47:02;;;;;;;14.52;5.88;;;21.60;80.30;;;;;;5030426;28;20548;-71
2022/05/14 11:49:36;;;;;;;6.70;2.85;;;21.70;79.50;;;;;;5014713;28;20042;-71
2022/05/14 11:52:16;;;;;;;13.05;3.20;;;21.90;92.20;;;;;;5010542;28;20042;-70
2022/05/14 11:55:01;;;;;;;7.85;2.42;;;22.00;76.70;;;;;;5011467;28;20030;-70
2022/05/14 11:57:49;;;;;;;11.20;4.25;;;22.00;76.80;;;;;;5011482;28;20038;-71
2022/05/14 12:00:19;;;;;;;15.40;3.85;;;22.00;75.60;;;;;;5011375;28;20037;-71
2022/05/14 12:02:48;;;;;;;8.05;3.05;;;22.00;76.50;;;;;;5010990;28;20164;-70
2022/05/14 12:05:42;;;;;;;11.57;4.47;;;22.00;75.80;;;;;;5011142;28;20018;-71
2022/05/14 12:08:25;;;;;;;11.27;4.63;;;22.00;74.50;;;;;;5005257;28;20041;-72
2022/05/14 12:11:08;;;;;;;8.15;3.00;;;22.10;73.70;;;;;;5011137;28;20048;-71
2022/05/14 12:13:51;;;;;;;8.30;3.20;;;22.00;75.80;;;;;;5011159;28;20411;-71
2022/05/14 12:16:28;;;;;;;9.38;4.20;;;22.20;73.80;;;;;;5009047;28;20056;-71
2022/05/14 12:18:54;;;;;;;9.52;3.45;;;22.40;75.50;;;;;;5022245;28;20454;-71
2022/05/14 12:21:20;;;;;;;8.68;3.17;;;22.40;73.80;;;;;;5030639;28;20036;-71
2022/05/14 12:23:48;;;;;;;9.77;3.70;;;22.70;74.20;;;;;;5030822;28;20022;-71
2022/05/14 12:26:25;;;;;;;10.50;4.20;;;22.80;74.20;;;;;;5025474;28;20111;-72
2022/05/14 12:28:55;;;;;;;10.88;3.35;;;23.00;72.00;;;;;;5010962;28;20036;-71
2022/05/14 12:34:11;;;;;;;12.05;3.45;;;23.00;73.60;;;;;;5010488;28;20398;-71
2022/05/14 12:36:45;;;;;;;7.70;2.80;;;23.20;72.40;;;;;;5011639;28;20029;-71
2022/05/14 12:39:18;;;;;;;6.50;2.97;;;23.40;72.70;;;;;;5010633;28;20386;-71
2022/05/14 12:41:45;;;;;;;;;;;23.30;72.40;;;;;;5011264;28;20088;-71
2022/05/14 12:44:15;;;;;;;8.57;2.78;;;23.30;72.30;;;;;;5010652;28;19905;-71
2022/05/14 12:46:47;;;;;;;9.77;3.03;;;23.10;72.50;;;;;;5010483;28;20125;-71
2022/05/14 12:49:20;;;;;;;8.43;3.03;;;23.00;72.10;;;;;;5010664;28;20029;-71
2022/05/14 12:51:51;;;;;;;6.43;2.50;;;23.10;71.40;;;;;;5010474;28;20479;-71
2022/05/14 12:54:23;;;;;;;11.50;3.90;;;23.30;71.50;;;;;;5009241;28;20040;-71
2022/05/14 12:56:52;;;;;;;9.35;3.25;;;23.50;70.10;;;;;;5019187;28;20029;-71
2022/05/14 12:59:17;;;;;;;7.93;3.55;;;23.70;69.80;;;;;;5030074;28;20415;-71
2022/05/14 13:01:43;;;;;;;7.13;2.60;;;23.70;69.00;;;;;;5029827;28;20111;-71
2022/05/14 13:04:10;;;;;;;9.75;3.22;;;23.70;68.70;;;;;;5029994;28;20049;-71
2022/05/14 13:06:42;;;;;;;7.10;2.80;;;23.80;69.00;;;;;;5029016;28;20478;-71
2022/05/14 13:09:10;;;;;;;9.45;3.20;;;23.80;69.10;;;;;;5030182;28;20105;-71
2022/05/14 13:11:44;;;;;;;8.20;3.35;;;23.90;68.30;;;;;;5030368;28;20483;-71
2022/05/14 13:14:21;;;;;;;9.63;3.35;;;24.00;68.30;;;;;;5029474;28;20064;-71
2022/05/14 13:17:01;;;;;;;8.07;3.03;;;24.10;67.10;;;;;;5030257;28;20095;-71
2022/05/14 13:19:45;;;;;;;8.60;2.20;;;24.10;67.50;;;;;;5030101;28;20032;-71
2022/05/14 13:22:30;;;;;;;8.05;3.60;;;24.20;67.60;;;;;;5029688;28;20083;-71
2022/05/14 13:24:56;;;;;;;11.45;5.18;;;24.40;65.60;;;;;;5029621;28;20026;-71
2022/05/14 13:27:34;;;;;;;9.95;3.15;;;24.30;66.40;;;;;;5016369;28;20108;-71
2022/05/14 13:30:30;;;;;;;10.27;3.35;;;24.50;65.70;;;;;;5009103;28;20080;-71